createdAt,value
2018-06-13T00:01:11.249Z,24.62
2018-06-13T00:03:42.286Z,24.62
2018-06-13T00:06:12.814Z,24.75
2018-06-13T00:08:43.091Z,24.80
2018-06-13T00:11:13.437Z,24.83
2018-06-13T00:13:43.702Z,24.74
2018-06-13T00:16:14.213Z,24.42
2018-06-13T00:18:44.546Z,24.49
2018-06-13T00:21:14.885Z,24.65
2018-06-13T00:23:45.165Z,24.57
2018-06-13T00:26:15.718Z,24.29
2018-06-13T00:28:45.973Z,24.08
2018-06-13T00:31:16.665Z,24.26
2018-06-13T00:33:46.921Z,24.41
2018-06-13T00:36:17.531Z,24.46
2018-06-13T00:38:47.890Z,24.42
2018-06-13T00:41:18.585Z,24.48
2018-06-13T00:43:48.853Z,24.49
2018-06-13T00:46:20.215Z,24.44
2018-06-13T00:48:50.541Z,24.47
2018-06-13T00:51:20.861Z,24.40
2018-06-13T00:53:51.193Z,24.44
2018-06-13T00:56:31.381Z,24.37
2018-06-13T00:59:01.681Z,24.39
2018-06-13T01:01:32.017Z,24.58
2018-06-13T01:04:02.351Z,24.44
2018-06-13T01:06:33.660Z,24.40
2018-06-13T01:09:05.376Z,24.40
2018-06-13T01:11:35.736Z,24.28
2018-06-13T01:14:06.180Z,24.35
2018-06-13T01:16:36.477Z,24.32
2018-06-13T01:19:06.819Z,24.11
2018-06-13T01:21:37.251Z,24.16
2018-06-13T01:24:07.486Z,24.17
2018-06-13T01:26:37.749Z,24.18
2018-06-13T01:29:08.053Z,24.16
2018-06-13T01:31:38.323Z,24.08
2018-06-13T01:34:08.602Z,24.10
2018-06-13T01:36:38.941Z,24.13
2018-06-13T01:39:09.618Z,24.16
2018-06-13T01:41:39.987Z,24.20
2018-06-13T01:44:10.322Z,24.11
2018-06-13T01:46:40.874Z,24.07
2018-06-13T01:49:11.149Z,24.12
2018-06-13T01:51:41.330Z,24.13
2018-06-13T01:54:11.651Z,23.90
2018-06-13T01:56:42.030Z,23.62
2018-06-13T01:59:12.358Z,23.52
2018-06-13T02:01:42.695Z,23.56
2018-06-13T02:04:13.362Z,23.69
2018-06-13T02:06:43.690Z,23.63
2018-06-13T02:09:14.394Z,23.60
2018-06-13T02:11:44.679Z,23.50
2018-06-13T02:14:15.200Z,23.54
2018-06-13T02:16:45.509Z,23.49
2018-06-13T02:19:16.157Z,23.54
2018-06-13T02:21:46.514Z,23.65
2018-06-13T02:24:16.945Z,23.72
2018-06-13T02:26:47.201Z,23.61
2018-06-13T02:29:17.537Z,23.69
2018-06-13T02:31:47.858Z,23.66
2018-06-13T02:34:18.181Z,23.69
2018-06-13T02:36:48.441Z,23.80
2018-06-13T02:39:18.725Z,23.77
2018-06-13T02:41:49.001Z,23.76
2018-06-13T02:44:19.407Z,23.76
2018-06-13T02:46:49.669Z,23.73
2018-06-13T02:49:20.352Z,23.70
2018-06-13T02:51:50.612Z,23.73
2018-06-13T02:54:20.969Z,23.65
2018-06-13T02:56:51.298Z,23.60
2018-06-13T02:59:21.954Z,23.52
2018-06-13T03:01:52.262Z,23.56
2018-06-13T03:04:22.637Z,23.63
2018-06-13T03:06:52.929Z,23.77
2018-06-13T03:09:23.406Z,23.85
2018-06-13T03:11:53.681Z,23.87
2018-06-13T03:14:23.997Z,23.91
2018-06-13T03:16:54.309Z,23.77
2018-06-13T03:19:24.863Z,23.93
2018-06-13T03:21:55.170Z,23.89
2018-06-13T03:24:25.538Z,23.90
2018-06-13T03:26:55.809Z,23.94
2018-06-13T03:29:26.170Z,24.00
2018-06-13T03:31:56.494Z,24.07
2018-06-13T03:34:26.926Z,24.20
2018-06-13T03:36:57.241Z,24.22
2018-06-13T03:39:27.176Z,24.30
2018-06-13T03:41:57.742Z,24.37
2018-06-13T03:44:28.094Z,24.39
2018-06-13T03:46:58.474Z,24.47
2018-06-13T03:49:28.750Z,24.60
2018-06-13T03:51:59.777Z,24.63
2018-06-13T03:54:30.037Z,24.72
2018-06-13T03:57:00.325Z,24.84
2018-06-13T03:59:30.682Z,24.93
2018-06-13T04:02:00.941Z,24.99
2018-06-13T04:04:31.301Z,25.06
2018-06-13T04:07:01.557Z,25.15
2018-06-13T04:09:32.066Z,25.32
2018-06-13T04:12:02.321Z,25.45
2018-06-13T04:14:32.653Z,25.56
2018-06-13T04:17:02.975Z,25.64
2018-06-13T04:19:33.377Z,25.70
2018-06-13T04:22:04.601Z,25.58
2018-06-13T04:24:34.542Z,25.38
2018-06-13T04:27:04.843Z,25.77
2018-06-13T04:29:34.853Z,25.95
2018-06-13T04:32:05.153Z,25.94
2018-06-13T04:34:35.692Z,25.99
2018-06-13T04:37:05.957Z,25.68
2018-06-13T04:39:36.289Z,25.56
2018-06-13T04:42:06.737Z,25.84
2018-06-13T04:44:37.013Z,26.22
2018-06-13T04:47:07.649Z,26.22
2018-06-13T04:49:37.910Z,26.41
2018-06-13T04:52:08.310Z,26.73
2018-06-13T04:54:38.630Z,26.98
2018-06-13T04:57:08.969Z,27.48
2018-06-13T04:59:39.269Z,27.53
2018-06-13T05:02:09.969Z,27.55
2018-06-13T05:04:40.213Z,27.93
2018-06-13T05:07:10.541Z,27.98
2018-06-13T05:09:40.829Z,28.11
2018-06-13T05:12:11.457Z,28.11
2018-06-13T05:14:41.774Z,27.91
2018-06-13T05:17:12.058Z,28.10
2018-06-13T05:19:42.437Z,28.81
2018-06-13T05:22:12.810Z,28.94
2018-06-13T05:24:43.347Z,28.62
2018-06-13T05:27:13.677Z,28.42
2018-06-13T05:29:44.310Z,29.09
2018-06-13T05:32:14.585Z,29.57
2018-06-13T05:34:44.752Z,30.05
2018-06-13T05:37:15.026Z,30.11
2018-06-13T05:39:45.706Z,29.92
2018-06-13T05:42:16.034Z,30.00
2018-06-13T05:44:46.409Z,30.06
2018-06-13T05:47:16.762Z,29.73
2018-06-13T05:49:47.186Z,30.07
2018-06-13T05:52:17.554Z,29.69
2018-06-13T05:54:47.825Z,30.21
2018-06-13T05:57:18.154Z,30.79
2018-06-13T05:59:48.614Z,30.75
2018-06-13T06:02:18.906Z,31.41
2018-06-13T06:04:49.377Z,31.89
2018-06-13T06:07:19.702Z,31.88
2018-06-13T06:09:50.030Z,31.87
2018-06-13T06:12:20.310Z,32.11
2018-06-13T06:14:51.000Z,31.93
2018-06-13T06:17:21.265Z,32.20
2018-06-13T06:19:51.755Z,32.02
2018-06-13T06:22:22.385Z,32.31
2018-06-13T06:24:52.718Z,31.80
2018-06-13T06:27:22.969Z,31.13
2018-06-13T06:29:53.484Z,31.60
2018-06-13T06:32:24.769Z,32.14
2018-06-13T06:34:55.255Z,31.36
2018-06-13T06:37:25.655Z,31.30
2018-06-13T06:39:56.103Z,31.17
2018-06-13T06:42:26.440Z,31.05
2018-06-13T06:44:56.953Z,31.05
2018-06-13T06:47:28.138Z,31.43
2018-06-13T06:49:58.993Z,31.84
2018-06-13T06:52:29.285Z,32.00
2018-06-13T06:55:00.449Z,31.49
2018-06-13T06:57:30.794Z,31.54
2018-06-13T07:00:01.586Z,31.36
2018-06-13T07:02:32.069Z,32.08
2018-06-13T07:05:02.355Z,31.95
2018-06-13T07:07:32.721Z,33.19
2018-06-13T07:10:03.134Z,33.86
2018-06-13T07:12:33.543Z,33.85
2018-06-13T07:15:03.942Z,33.59
2018-06-13T07:17:34.299Z,33.71
2018-06-13T07:20:04.702Z,34.02
2018-06-13T07:22:35.027Z,33.23
2018-06-13T07:25:05.610Z,33.39
2018-06-13T07:27:35.894Z,34.13
2018-06-13T07:30:06.485Z,34.56
2018-06-13T07:32:36.838Z,34.81
2018-06-13T07:35:07.501Z,35.07
2018-06-13T07:37:37.806Z,33.92
2018-06-13T07:40:08.188Z,33.81
2018-06-13T07:42:38.570Z,35.12
2018-06-13T07:45:09.021Z,35.25
2018-06-13T07:47:39.410Z,35.33
2018-06-13T07:50:09.904Z,35.42
2018-06-13T07:52:39.785Z,35.07
2018-06-13T07:55:10.362Z,35.28
2018-06-13T07:57:40.759Z,35.62
2018-06-13T08:00:11.197Z,34.92
2018-06-13T08:02:41.822Z,35.37
2018-06-13T08:05:12.141Z,34.63
2018-06-13T08:07:42.518Z,34.81
2018-06-13T08:10:12.834Z,35.14
2018-06-13T08:12:43.458Z,35.30
2018-06-13T08:15:13.778Z,34.86
2018-06-13T08:17:44.371Z,35.77
2018-06-13T08:20:14.689Z,36.51
2018-06-13T08:22:45.059Z,36.40
2018-06-13T08:25:15.606Z,35.92
2018-06-13T08:27:52.005Z,36.18
2018-06-13T08:30:22.382Z,36.88
2018-06-13T08:32:52.735Z,35.93
2018-06-13T08:35:23.053Z,36.01
2018-06-13T08:37:53.833Z,36.67
2018-06-13T08:40:24.520Z,36.63
2018-06-13T08:42:55.305Z,36.95
2018-06-13T08:45:26.083Z,36.36
2018-06-13T08:47:57.145Z,36.79
2018-06-13T08:50:27.869Z,36.16
2018-06-13T08:52:58.237Z,37.15
2018-06-13T08:55:29.014Z,37.24
2018-06-13T08:57:59.782Z,36.79
2018-06-13T09:00:30.586Z,38.04
2018-06-13T09:03:01.374Z,36.83
2018-06-13T09:05:31.743Z,37.23
2018-06-13T09:08:02.343Z,36.75
2018-06-13T09:10:32.675Z,36.97
2018-06-13T09:13:03.058Z,37.16
2018-06-13T09:15:33.457Z,37.17
2018-06-13T09:18:03.921Z,36.95
2018-06-13T09:20:34.304Z,36.87
2018-06-13T09:23:04.845Z,37.74
2018-06-13T09:25:35.259Z,37.48
2018-06-13T09:28:05.772Z,36.76
2018-06-13T09:30:36.234Z,38.01
2018-06-13T09:33:06.642Z,38.40
2018-06-13T09:35:36.969Z,39.27
2018-06-13T09:38:07.665Z,38.80
2018-06-13T09:40:38.225Z,37.11
2018-06-13T09:43:08.753Z,36.81
2018-06-13T09:45:39.183Z,36.30
2018-06-13T09:48:09.673Z,36.77
2018-06-13T09:50:40.059Z,37.68
2018-06-13T09:53:10.425Z,37.87
2018-06-13T09:55:40.739Z,38.08
2018-06-13T09:58:11.233Z,37.95
2018-06-13T10:00:46.634Z,37.99
2018-06-13T10:03:17.228Z,38.16
2018-06-13T10:05:47.609Z,38.19
2018-06-13T10:08:18.230Z,37.66
2018-06-13T10:10:48.560Z,38.81
2018-06-13T10:13:18.933Z,38.84
2018-06-13T10:15:49.340Z,39.04
2018-06-13T10:18:19.758Z,38.48
2018-06-13T10:20:50.074Z,38.26
2018-06-13T10:23:20.562Z,39.06
2018-06-13T10:25:50.958Z,39.57
2018-06-13T10:28:21.689Z,39.08
2018-06-13T10:30:52.001Z,39.83
2018-06-13T10:33:22.384Z,39.03
2018-06-13T10:35:53.125Z,39.27
2018-06-13T10:38:23.973Z,39.33
2018-06-13T10:40:54.646Z,40.58
2018-06-13T10:43:25.320Z,40.98
2018-06-13T10:45:55.729Z,40.64
2018-06-13T10:48:26.198Z,40.28
2018-06-13T10:50:56.566Z,40.35
2018-06-13T10:53:26.882Z,41.04
2018-06-13T10:55:57.298Z,41.17
2018-06-13T10:58:27.782Z,40.13
2018-06-13T11:00:58.153Z,39.87
2018-06-13T11:03:28.492Z,39.31
2018-06-13T11:05:59.483Z,40.06
2018-06-13T11:08:30.159Z,40.71
2018-06-13T11:11:00.790Z,40.93
2018-06-13T11:13:31.945Z,40.97
2018-06-13T11:16:02.781Z,41.60
2018-06-13T11:18:34.924Z,41.54
2018-06-13T11:21:05.670Z,41.29
2018-06-13T11:23:36.190Z,40.82
2018-06-13T11:26:06.894Z,40.98
2018-06-13T11:28:37.369Z,41.49
2018-06-13T11:31:07.930Z,41.05
2018-06-13T11:33:38.225Z,41.90
2018-06-13T11:36:08.585Z,41.32
2018-06-13T11:38:38.885Z,40.31
2018-06-13T11:41:09.475Z,41.48
2018-06-13T11:43:39.839Z,39.99
2018-06-13T11:46:10.330Z,41.20
2018-06-13T11:48:40.682Z,42.97
2018-06-13T11:51:11.073Z,43.22
2018-06-13T11:53:41.756Z,41.85
2018-06-13T11:56:12.090Z,42.52
2018-06-13T11:58:42.450Z,42.63
2018-06-13T12:01:12.977Z,41.39
2018-06-13T12:03:43.282Z,40.42
2018-06-13T12:06:13.755Z,39.85
2018-06-13T12:08:44.049Z,38.50
2018-06-13T12:11:14.501Z,38.38
2018-06-13T12:13:44.894Z,37.31
2018-06-13T12:16:15.237Z,37.31
2018-06-13T12:18:45.628Z,37.43
2018-06-13T12:21:16.188Z,37.42
2018-06-13T12:23:46.512Z,37.31
2018-06-13T12:26:16.987Z,37.23
2018-06-13T12:28:47.436Z,37.20
2018-06-13T12:31:17.885Z,37.19
2018-06-13T12:33:48.190Z,37.17
2018-06-13T12:36:18.566Z,37.02
2018-06-13T12:38:48.882Z,37.30
2018-06-13T12:41:19.237Z,36.78
2018-06-13T12:43:49.533Z,37.20
2018-06-13T12:46:20.078Z,37.12
2018-06-13T12:48:50.381Z,37.15
2018-06-13T12:51:21.177Z,37.52
2018-06-13T12:53:51.517Z,37.16
2018-06-13T12:56:21.989Z,36.61
2018-06-13T12:58:52.407Z,36.76
2018-06-13T13:01:23.225Z,37.12
2018-06-13T13:03:53.559Z,37.04
2018-06-13T13:06:24.158Z,36.58
2018-06-13T13:08:54.505Z,36.67
2018-06-13T13:11:25.086Z,36.64
2018-06-13T13:13:55.397Z,36.44
2018-06-13T13:16:25.753Z,36.34
2018-06-13T13:18:56.093Z,36.58
2018-06-13T13:21:26.434Z,36.20
2018-06-13T13:23:57.050Z,36.53
2018-06-13T13:26:27.386Z,36.89
2018-06-13T13:28:57.863Z,37.09
2018-06-13T13:31:28.248Z,37.01
2018-06-13T13:34:01.181Z,37.13
2018-06-13T13:36:31.525Z,37.00
2018-06-13T13:39:01.918Z,37.03
2018-06-13T13:41:32.241Z,36.84
2018-06-13T13:44:02.556Z,36.93
2018-06-13T13:46:33.079Z,36.80
2018-06-13T13:49:03.619Z,37.18
2018-06-13T13:51:34.113Z,37.30
2018-06-13T13:54:04.552Z,37.62
2018-06-13T13:56:35.298Z,37.19
2018-06-13T13:59:05.677Z,36.74
2018-06-13T14:01:36.446Z,37.21
2018-06-13T14:04:11.355Z,37.29
2018-06-13T14:06:41.851Z,37.42
2018-06-13T14:09:12.741Z,37.20
2018-06-13T14:11:43.605Z,37.98
2018-06-13T14:14:13.972Z,38.52
2018-06-13T14:16:44.334Z,37.98
2018-06-13T14:19:14.634Z,37.67
2018-06-13T14:21:45.080Z,37.18
2018-06-13T14:24:15.378Z,37.66
2018-06-13T14:26:46.205Z,37.91
2018-06-13T14:29:16.913Z,37.86
2018-06-13T14:31:47.869Z,37.11
2018-06-13T14:34:18.394Z,37.09
2018-06-13T14:36:49.241Z,37.27
2018-06-13T14:39:19.983Z,36.93
2018-06-13T14:41:50.814Z,37.10
2018-06-13T14:44:21.501Z,37.05
2018-06-13T14:46:52.197Z,37.31
2018-06-13T14:49:22.784Z,37.17
2018-06-13T14:51:53.798Z,37.28
2018-06-13T14:54:24.367Z,37.56
2018-06-13T14:56:55.134Z,37.39
